Atlantic Beach, FL

9:01 AM EST on February 07, 2016 (GMT -0500)
13th and Ocean | | Change Station
CLOSE
Current Station
Personal Weather Station
Location: Atlantic Beach, FL
Elevation: 14 ft
Nearby Weather Stations

Elev 14 ft 30.34 °N, 81.40 °W | Updated 277 days ago

Cloudy
Cloudy
45 °F
Feels Like 37 °F
N
19
Wind Variable Wind from NW
Gusts 30 mph

Today
High -- | Low -- °F
--% Chance of Precip.
Yesterday
High -- | Low -- °F
Precip. -- in
Pressure 30.02 in
Visibility 10.0 miles
Clouds Overcast 900 ft
Windchill 37 °F
Dew Point 39 °F
Humidity 77%
Rainfall in
Snow Depth Not available.
7:12 AM 6:07 PM
Waning Crescent, 1% visible
METAR KNRB 071352Z AUTO 30012G18KT 10SM OVC009 06/04 A3002 RMK AO2 RAE09 SLP164 P0000 T00560044 $
Pressure 30.02 in
Visibility 10.0 miles
Clouds Overcast 900 ft
Windchill 37 °F
Dew Point 39 °F
Humidity 77%
Rainfall in
Snow Depth Not available.
7:12 AM 6:07 PM
Waning Crescent, 1% visible
METAR KNRB 071352Z AUTO 30012G18KT 10SM OVC009 06/04 A3002 RMK AO2 RAE09 SLP164 P0000 T00560044 $

10-Day Weather Forecast

Almanac

Astronomy

Feb. 07, 2016 Rise Set
Actual Time
Civil Twilight
Nautical Twilight
Astronomical Twilight
Moon
Length of Visible Light
Length of Day
Tomorrow will be .
, % of the Moon is Illuminated

Today's Extremes

State Highs State Lows

Community

WunderPhotos

Upload Photos

1,891,204 photos uploaded!

WunderBlog® & News

Nearby

Air Quality

  Air Quality AQ Index Pollutant
Not available.

Snow Depth

Station Depth Elevation

Earthquake Activity

City Distance Mag. Time & Date
Minimum magnitude displayed is 2.5.

Coastal Water Temperatures

Place Temperature

Stations

Nearby Weather Stations

Station Location Temp. Windchill Dew Point Humidity Wind Precip. Elev Updated Type
                   

Watches & Warnings

There are currently no watches in effect.